48.1°F
Current conditions from King Hill
Updated every 5 minutes
 
  Wednesday July 30, 2014

Station Historical Data
Daily Summary for June 8, 2012 Units:  English    Metric   Both
« Previous Day
Next Day »
Daily Weekly Monthly Yearly Custom
  High: Low: Average:
Temperature: 71.7 °F 50.8 °F 60.1 °F
Dew Point: 58.9 °F 45.8 °F 52.8 °F
Humidity: 93% 51% 78%
Wind Speed: 9.0mph 0.0mph 2.3mph
Wind Gust: 19.0mph - -
Wind- - SW
Pressure: 29.86 in 29.67 in -
Precipitation: 0.28 in    
Historical Graphs
 
 
Tabular Data for June 8, 2012
Time Temperature Dew Point Pressure Wind Wind Speed Wind Gust Humidity Daily Rainfall
00:04 52.8 °F 45.8 °F 29.85 in Calm   6.0 mph 77% 0.00 in
00:09 53.2 °F 45.8 °F 29.85 in Calm   6.0 mph 76% 0.00 in
00:14 53.4 °F 46.0 °F 29.85 in Calm   4.0 mph 76% 0.00 in
00:19 53.3 °F 46.3 °F 29.85 in Calm   1.0 mph 77% 0.00 in
00:24 53.1 °F 46.4 °F 29.85 in Calm   4.0 mph 78% 0.00 in
00:29 53.1 °F 46.4 °F 29.85 in Calm   4.0 mph 78% 0.00 in
00:34 53.6 °F 46.9 °F 29.85 in SW 1.0 mph 5.0 mph 78% 0.00 in
00:39 54.2 °F 47.5 °F 29.85 in Calm   5.0 mph 78% 0.00 in
00:44 55.1 °F 48.4 °F 29.85 in SSW 2.0 mph 7.0 mph 78% 0.00 in
00:49 55.9 °F 49.1 °F 29.86 in SW 1.0 mph 7.0 mph 78% 0.00 in
00:54 56.6 °F 49.5 °F 29.86 in WSW 1.0 mph 7.0 mph 77% 0.00 in
00:59 57.2 °F 50.1 °F 29.86 in WSW 2.0 mph 7.0 mph 77% 0.00 in
01:04 58.0 °F 50.5 °F 29.85 in WSW 4.0 mph 9.0 mph 76% 0.00 in
01:09 58.3 °F 50.4 °F 29.85 in Calm   9.0 mph 75% 0.00 in
01:14 58.2 °F 50.0 °F 29.85 in Calm   5.0 mph 74% 0.00 in
01:19 58.1 °F 49.9 °F 29.84 in Calm   7.0 mph 74% 0.00 in
01:24 57.8 °F 49.6 °F 29.84 in Calm   7.0 mph 74% 0.00 in
01:29 57.5 °F 49.6 °F 29.84 in SW 1.0 mph 4.0 mph 75% 0.00 in
01:34 57.2 °F 49.4 °F 29.84 in Calm   4.0 mph 75% 0.00 in
01:39 56.9 °F 49.4 °F 29.83 in Calm   1.0 mph 76% 0.00 in
01:44 56.6 °F 49.1 °F 29.83 in Calm   1.0 mph 76% 0.00 in
01:49 56.2 °F 49.1 °F 29.84 in Calm   4.0 mph 77% 0.00 in
01:54 55.7 °F 49.0 °F 29.83 in Calm   4.0 mph 78% 0.00 in
01:59 55.3 °F 48.6 °F 29.83 in Calm   4.0 mph 78% 0.00 in
02:04 55.0 °F 48.6 °F 29.83 in Calm   1.0 mph 79% 0.00 in
02:09 54.8 °F 48.8 °F 29.82 in Calm   1.0 mph 80% 0.00 in
02:14 54.7 °F 48.7 °F 29.82 in Calm   2.0 mph 80% 0.00 in
02:19 54.7 °F 48.7 °F 29.83 in Calm   4.0 mph 80% 0.00 in
02:24 54.6 °F 48.6 °F 29.83 in Calm   4.0 mph 80% 0.00 in
02:29 54.4 °F 48.4 °F 29.83 in Calm   1.0 mph 80% 0.00 in
02:34 54.2 °F 48.5 °F 29.82 in Calm   1.0 mph 81% 0.00 in
02:44 54.0 °F 48.6 °F 29.82 in Calm     82% 0.00 in
02:49 53.8 °F 48.4 °F 29.82 in Calm     82% 0.00 in
02:54 53.5 °F 48.1 °F 29.82 in Calm     82% 0.00 in
02:59 53.3 °F 48.3 °F 29.82 in Calm     83% 0.00 in
03:04 53.0 °F 48.3 °F 29.82 in Calm     84% 0.00 in
03:09 52.7 °F 48.0 °F 29.81 in Calm     84% 0.00 in
03:14 52.4 °F 48.0 °F 29.81 in Calm     85% 0.00 in
03:19 52.3 °F 48.2 °F 29.81 in Calm     86% 0.00 in
03:24 52.2 °F 48.1 °F 29.81 in Calm     86% 0.00 in
03:29 52.3 °F 48.2 °F 29.81 in Calm     86% 0.00 in
03:34 52.3 °F 48.2 °F 29.81 in Calm     86% 0.00 in
03:39 52.2 °F 48.1 °F 29.81 in Calm     86% 0.00 in
03:44 52.1 °F 47.7 °F 29.81 in Calm     85% 0.00 in
03:49 52.0 °F 47.9 °F 29.81 in Calm     86% 0.00 in
03:54 51.9 °F 47.8 °F 29.81 in Calm     86% 0.00 in
03:59 51.9 °F 47.8 °F 29.81 in Calm     86% 0.00 in
04:04 51.8 °F 47.7 °F 29.81 in Calm     86% 0.00 in
04:09 51.6 °F 47.6 °F 29.81 in Calm     86% 0.00 in
04:14 51.6 °F 47.9 °F 29.81 in Calm     87% 0.00 in
04:19 51.7 °F 48.0 °F 29.81 in SSW 1.0 mph 3.0 mph 87% 0.00 in
04:24 51.7 °F 48.0 °F 29.80 in Calm   3.0 mph 87% 0.00 in
04:29 51.6 °F 47.9 °F 29.81 in Calm     87% 0.00 in
04:34 51.7 °F 48.0 °F 29.80 in Calm     87% 0.00 in
04:39 51.8 °F 48.1 °F 29.80 in Calm     87% 0.00 in
04:44 52.0 °F 48.3 °F 29.80 in Calm   5.0 mph 87% 0.00 in
04:49 52.3 °F 48.5 °F 29.81 in Calm   5.0 mph 87% 0.00 in
04:54 52.2 °F 48.1 °F 29.81 in Calm     86% 0.00 in
04:59 52.1 °F 48.0 °F 29.81 in Calm     86% 0.00 in
05:04 52.0 °F 47.9 °F 29.81 in Calm   1.0 mph 86% 0.00 in
05:09 51.9 °F 47.8 °F 29.81 in Calm   1.0 mph 86% 0.00 in
05:14 51.8 °F 47.7 °F 29.81 in Calm     86% 0.00 in
05:19 51.7 °F 47.7 °F 29.81 in Calm     86% 0.00 in
05:24 51.9 °F 48.2 °F 29.81 in Calm     87% 0.00 in
05:29 52.1 °F 48.0 °F 29.81 in Calm   1.0 mph 86% 0.00 in
05:34 52.3 °F 48.2 °F 29.82 in Calm   1.0 mph 86% 0.00 in
05:39 52.5 °F 48.4 °F 29.82 in Calm   1.0 mph 86% 0.00 in
05:44 52.6 °F 48.5 °F 29.82 in Calm     86% 0.00 in
05:49 52.7 °F 48.3 °F 29.82 in Calm   5.0 mph 85% 0.00 in
05:54 52.8 °F 48.4 °F 29.82 in SW 1.0 mph 5.0 mph 85% 0.00 in
06:04 53.1 °F 48.7 °F 29.82 in Calm   6.0 mph 85% 0.00 in
06:09 53.2 °F 48.5 °F 29.82 in Calm   6.0 mph 84% 0.00 in
06:14 53.2 °F 48.5 °F 29.81 in SSW 1.0 mph 5.0 mph 84% 0.00 in
06:19 53.4 °F 48.7 °F 29.81 in SW 3.0 mph 7.0 mph 84% 0.00 in
06:24 53.5 °F 48.8 °F 29.81 in SW 3.0 mph 7.0 mph 84% 0.00 in
06:29 53.7 °F 49.0 °F 29.81 in SW 3.0 mph 8.0 mph 84% 0.00 in
06:34 54.0 °F 49.3 °F 29.81 in SSW 3.0 mph 9.0 mph 84% 0.00 in
06:39 54.4 °F 49.3 °F 29.82 in SW 4.0 mph 9.0 mph 83% 0.00 in
06:44 54.8 °F 49.7 °F 29.82 in SSW 3.0 mph 8.0 mph 83% 0.00 in
06:49 55.1 °F 50.0 °F 29.82 in SSW 2.0 mph 8.0 mph 83% 0.00 in
06:54 55.4 °F 50.0 °F 29.82 in SW 2.0 mph 6.0 mph 82% 0.00 in
06:59 55.7 °F 50.3 °F 29.82 in SW 3.0 mph 11.0 mph 82% 0.00 in
07:04 56.1 °F 50.7 °F 29.82 in SSW 2.0 mph 11.0 mph 82% 0.00 in
07:09 56.5 °F 50.7 °F 29.82 in SSW 5.0 mph 10.0 mph 81% 0.00 in
07:14 56.9 °F 51.1 °F 29.82 in SSW 5.0 mph 10.0 mph 81% 0.00 in
07:19 57.3 °F 51.5 °F 29.82 in SW 3.0 mph 10.0 mph 81% 0.00 in
07:24 57.7 °F 51.6 °F 29.82 in SW 2.0 mph 7.0 mph 80% 0.00 in
07:29 58.0 °F 51.9 °F 29.82 in Calm   7.0 mph 80% 0.00 in
07:34 58.4 °F 51.9 °F 29.82 in SSW 2.0 mph 9.0 mph 79% 0.00 in
07:39 58.7 °F 51.9 °F 29.82 in SW 2.0 mph 12.0 mph 78% 0.00 in
07:44 59.0 °F 52.5 °F 29.82 in SSW 2.0 mph 12.0 mph 79% 0.00 in
07:49 59.0 °F 52.2 °F 29.81 in SW 3.0 mph 8.0 mph 78% 0.00 in
07:54 59.3 °F 52.1 °F 29.82 in SSW 3.0 mph 9.0 mph 77% 0.00 in
07:59 59.7 °F 52.5 °F 29.82 in South 1.0 mph 10.0 mph 77% 0.00 in
08:04 60.2 °F 52.6 °F 29.82 in SSW 3.0 mph 10.0 mph 76% 0.00 in
08:09 60.7 °F 53.1 °F 29.82 in SSW 1.0 mph 10.0 mph 76% 0.00 in
08:14 61.3 °F 53.3 °F 29.82 in SSW 2.0 mph 10.0 mph 75% 0.00 in
08:19 61.9 °F 53.9 °F 29.82 in SW 2.0 mph 10.0 mph 75% 0.00 in
08:24 62.4 °F 53.6 °F 29.82 in SSW 3.0 mph 9.0 mph 73% 0.00 in
08:29 62.6 °F 53.8 °F 29.81 in SSW 1.0 mph 9.0 mph 73% 0.00 in
08:34 62.9 °F 54.1 °F 29.81 in SW 2.0 mph 10.0 mph 73% 0.00 in
08:39 63.3 °F 54.5 °F 29.81 in SSW 5.0 mph 10.0 mph 73% 0.00 in
08:44 63.7 °F 54.5 °F 29.81 in SSW 2.0 mph 10.0 mph 72% 0.00 in
08:49 64.4 °F 54.8 °F 29.81 in SW 5.0 mph 11.0 mph 71% 0.00 in
08:54 64.7 °F 55.1 °F 29.81 in SSW 3.0 mph 11.0 mph 71% 0.00 in
08:59 65.2 °F 56.0 °F 29.81 in Calm   10.0 mph 72% 0.00 in
09:04 65.2 °F 54.8 °F 29.80 in SW 5.0 mph 10.0 mph 69% 0.00 in
09:09 64.9 °F 55.3 °F 29.80 in Calm   11.0 mph 71% 0.00 in
09:14 65.0 °F 55.0 °F 29.80 in SSW 1.0 mph 11.0 mph 70% 0.00 in
09:19 65.5 °F 55.5 °F 29.80 in SSW 1.0 mph 7.0 mph 70% 0.00 in
09:24 65.5 °F 55.9 °F 29.80 in SW 1.0 mph 7.0 mph 71% 0.00 in
09:29 65.8 °F 56.1 °F 29.80 in SW 1.0 mph 8.0 mph 71% 0.00 in
09:34 66.0 °F 55.9 °F 29.80 in Calm   8.0 mph 70% 0.00 in
09:39 65.8 °F 55.0 °F 29.80 in SSW 4.0 mph 8.0 mph 68% 0.00 in
09:44 65.3 °F 54.9 °F 29.80 in Calm   8.0 mph 69% 0.00 in
09:49 65.0 °F 55.0 °F 29.80 in SW 2.0 mph 7.0 mph 70% 0.00 in
09:54 65.2 °F 55.6 °F 29.80 in SSW 3.0 mph 9.0 mph 71% 0.00 in
09:59 66.1 °F 56.4 °F 29.79 in SW 2.0 mph 9.0 mph 71% 0.00 in
10:04 67.6 °F 57.9 °F 29.79 in SSW 1.0 mph 7.0 mph 71% 0.00 in
10:09 68.2 °F 57.2 °F 29.79 in SW 2.0 mph 8.0 mph 68% 0.00 in
10:14 68.4 °F 56.2 °F 29.79 in SSW 4.0 mph 8.0 mph 65% 0.00 in
10:24 68.1 °F 56.3 °F 29.79 in SSW 3.0 mph 8.0 mph 66% 0.00 in
10:29 68.0 °F 56.2 °F 29.79 in SW 2.0 mph 8.0 mph 66% 0.00 in
10:39 68.7 °F 58.5 °F 29.78 in SW 1.0 mph 8.0 mph 70% 0.00 in
10:44 69.1 °F 57.3 °F 29.78 in South 2.0 mph 8.0 mph 66% 0.00 in
10:49 68.7 °F 56.5 °F 29.78 in South 4.0 mph 10.0 mph 65% 0.00 in
10:54 68.8 °F 57.4 °F 29.77 in SW 1.0 mph 10.0 mph 67% 0.00 in
10:59 69.2 °F 56.9 °F 29.77 in SW 1.0 mph 9.0 mph 65% 0.00 in
11:04 69.2 °F 56.1 °F 29.77 in SSW 4.0 mph 9.0 mph 63% 0.00 in
11:09 68.8 °F 56.6 °F 29.77 in SSW 4.0 mph 11.0 mph 65% 0.00 in
11:14 68.9 °F 56.2 °F 29.77 in SSW 6.0 mph 12.0 mph 64% 0.00 in
11:19 69.0 °F 57.6 °F 29.77 in Calm   14.0 mph 67% 0.00 in
11:24 69.7 °F 57.8 °F 29.77 in SW 1.0 mph 14.0 mph 66% 0.00 in
11:29 70.5 °F 58.2 °F 29.77 in SW 1.0 mph 10.0 mph 65% 0.00 in
11:34 70.8 °F 57.6 °F 29.77 in SSW 5.0 mph 11.0 mph 63% 0.00 in
11:39 70.5 °F 56.4 °F 29.77 in SW 4.0 mph 15.0 mph 61% 0.00 in
11:44 70.4 °F 57.7 °F 29.76 in SW 1.0 mph 15.0 mph 64% 0.00 in
11:49 70.4 °F 58.1 °F 29.76 in Calm   12.0 mph 65% 0.00 in
11:54 70.7 °F 57.9 °F 29.77 in SW 3.0 mph 11.0 mph 64% 0.00 in
11:59 71.1 °F 58.3 °F 29.76 in SSW 1.0 mph 9.0 mph 64% 0.00 in
12:04 70.9 °F 56.8 °F 29.76 in SSW 3.0 mph 10.0 mph 61% 0.00 in
12:09 70.6 °F 57.4 °F 29.76 in SW 2.0 mph 10.0 mph 63% 0.00 in
12:14 70.6 °F 58.3 °F 29.76 in SSW 2.0 mph 8.0 mph 65% 0.00 in
12:19 70.5 °F 57.3 °F 29.76 in SW 3.0 mph 10.0 mph 63% 0.00 in
12:29 70.2 °F 57.5 °F 29.76 in Calm   9.0 mph 64% 0.00 in
12:34 70.4 °F 57.2 °F 29.76 in SW 3.0 mph 8.0 mph 63% 0.00 in
12:39 70.5 °F 57.8 °F 29.76 in SW 1.0 mph 9.0 mph 64% 0.00 in
12:44 70.2 °F 57.5 °F 29.76 in Calm   12.0 mph 64% 0.00 in
12:49 70.2 °F 58.7 °F 29.76 in WSW 3.0 mph 12.0 mph 67% 0.00 in
12:54 70.1 °F 57.4 °F 29.76 in SW 2.0 mph 9.0 mph 64% 0.00 in
12:59 70.1 °F 58.2 °F 29.76 in SSW 2.0 mph 9.0 mph 66% 0.00 in
13:04 70.0 °F 56.4 °F 29.76 in SSW 3.0 mph 9.0 mph 62% 0.00 in
13:09 70.1 °F 58.2 °F 29.76 in SSW 1.0 mph 13.0 mph 66% 0.00 in
13:14 70.5 °F 58.6 °F 29.76 in SW 1.0 mph 13.0 mph 66% 0.00 in
13:19 70.5 °F 57.3 °F 29.75 in SW 2.0 mph 7.0 mph 63% 0.00 in
13:24 70.8 °F 58.9 °F 29.75 in Calm   6.0 mph 66% 0.00 in
13:29 70.7 °F 57.5 °F 29.76 in Calm   5.0 mph 63% 0.00 in
13:34 70.2 °F 57.0 °F 29.75 in West 1.0 mph 6.0 mph 63% 0.00 in
13:39 69.6 °F 56.9 °F 29.76 in West 1.0 mph 8.0 mph 64% 0.00 in
13:44 69.3 °F 57.0 °F 29.76 in Calm   8.0 mph 65% 0.00 in
13:49 68.9 °F 57.5 °F 29.76 in Calm   8.0 mph 67% 0.00 in
13:54 68.5 °F 57.5 °F 29.76 in West 1.0 mph 8.0 mph 68% 0.00 in
13:59 68.3 °F 57.3 °F 29.76 in WNW 4.0 mph 8.0 mph 68% 0.00 in
14:04 68.1 °F 57.2 °F 29.76 in West 3.0 mph 8.0 mph 68% 0.00 in
14:09 68.0 °F 57.5 °F 29.76 in SW 1.0 mph 8.0 mph 69% 0.00 in
14:14 67.9 °F 57.4 °F 29.76 in Calm   6.0 mph 69% 0.00 in
14:19 67.7 °F 57.2 °F 29.76 in WNW 3.0 mph 8.0 mph 69% 0.00 in
14:24 67.5 °F 57.8 °F 29.76 in NW 3.0 mph 8.0 mph 71% 0.00 in
14:29 67.3 °F 56.8 °F 29.76 in NW 4.0 mph 12.0 mph 69% 0.00 in
14:34 67.1 °F 56.2 °F 29.76 in NW 5.0 mph 12.0 mph 68% 0.00 in
14:39 66.9 °F 56.0 °F 29.75 in WNW 3.0 mph 11.0 mph 68% 0.00 in
14:49 67.4 °F 56.1 °F 29.74 in NNW 3.0 mph 6.0 mph 67% 0.00 in
14:54 67.7 °F 54.2 °F 29.73 in Calm   6.0 mph 62% 0.00 in
14:59 67.8 °F 55.2 °F 29.73 in Calm   3.0 mph 64% 0.00 in
15:04 67.8 °F 55.2 °F 29.72 in Calm   3.0 mph 64% 0.00 in
15:09 67.8 °F 54.8 °F 29.72 in Calm   1.0 mph 63% 0.00 in
15:14 68.2 °F 56.0 °F 29.71 in Calm     65% 0.00 in
15:19 68.8 °F 57.0 °F 29.71 in Calm   1.0 mph 66% 0.00 in
15:24 68.9 °F 54.5 °F 29.71 in Calm   1.0 mph 60% 0.00 in
15:29 68.9 °F 55.8 °F 29.71 in Calm   1.0 mph 63% 0.00 in
15:34 68.9 °F 56.7 °F 29.71 in Calm     65% 0.00 in
15:39 69.0 °F 56.8 °F 29.70 in SW 1.0 mph 3.0 mph 65% 0.00 in
15:44 69.2 °F 56.5 °F 29.70 in Calm   3.0 mph 64% 0.00 in
15:49 69.4 °F 57.1 °F 29.70 in Calm   2.0 mph 65% 0.00 in
15:54 69.2 °F 53.3 °F 29.70 in Calm   5.0 mph 57% 0.00 in
15:59 69.5 °F 53.6 °F 29.70 in Calm   5.0 mph 57% 0.00 in
16:04 69.9 °F 54.9 °F 29.70 in SW 1.0 mph 5.0 mph 59% 0.00 in
16:09 69.9 °F 54.9 °F 29.70 in Calm   5.0 mph 59% 0.00 in
16:14 70.1 °F 54.7 °F 29.70 in Calm   3.0 mph 58% 0.00 in
16:19 70.3 °F 54.8 °F 29.70 in Calm   1.0 mph 58% 0.00 in
16:24 70.8 °F 51.8 °F 29.69 in SW 3.0 mph 5.0 mph 51% 0.00 in
16:29 71.0 °F 54.5 °F 29.69 in Calm   5.0 mph 56% 0.00 in
16:34 71.4 °F 54.9 °F 29.68 in WSW 1.0 mph 4.0 mph 56% 0.00 in
16:39 71.7 °F 53.7 °F 29.68 in NW 3.0 mph 6.0 mph 53% 0.00 in
16:44 70.9 °F 54.9 °F 29.68 in NW 1.0 mph 6.0 mph 57% 0.00 in
16:49 70.1 °F 53.2 °F 29.68 in NW 2.0 mph 6.0 mph 55% 0.00 in
16:54 69.5 °F 53.6 °F 29.68 in NW 1.0 mph 5.0 mph 57% 0.00 in
16:59 69.1 °F 53.7 °F 29.68 in Calm   3.0 mph 58% 0.00 in
17:04 68.8 °F 53.9 °F 29.68 in Calm     59% 0.00 in
17:09 68.7 °F 57.3 °F 29.67 in Calm     67% 0.00 in
17:14 67.1 °F 57.4 °F 29.67 in NW 1.0 mph 3.0 mph 71% 0.01 in
17:19 65.9 °F 57.4 °F 29.68 in Calm   3.0 mph 74% 0.01 in
17:24 64.8 °F 57.4 °F 29.68 in Calm   1.0 mph 77% 0.01 in
17:29 63.9 °F 57.6 °F 29.68 in Calm     80% 0.01 in
17:34 63.3 °F 57.4 °F 29.69 in Calm     81% 0.01 in
17:39 62.9 °F 57.3 °F 29.69 in Calm   3.0 mph 82% 0.01 in
17:44 62.4 °F 56.8 °F 29.69 in WNW 1.0 mph 5.0 mph 82% 0.01 in
17:49 62.2 °F 56.6 °F 29.69 in Calm   5.0 mph 82% 0.01 in
17:54 62.0 °F 56.8 °F 29.69 in Calm   2.0 mph 83% 0.01 in
17:59 61.8 °F 56.6 °F 29.69 in Calm   2.0 mph 83% 0.01 in
18:04 61.5 °F 56.6 °F 29.69 in Calm   2.0 mph 84% 0.01 in
18:09 61.2 °F 56.3 °F 29.69 in Calm   1.0 mph 84% 0.01 in
18:14 60.9 °F 56.0 °F 29.69 in Calm     84% 0.01 in
18:19 60.5 °F 56.0 °F 29.69 in Calm     85% 0.01 in
18:24 60.2 °F 56.0 °F 29.69 in Calm     86% 0.01 in
18:29 60.0 °F 55.8 °F 29.69 in Calm   1.0 mph 86% 0.01 in
18:39 59.5 °F 55.3 °F 29.69 in Calm   1.0 mph 86% 0.01 in
18:44 59.2 °F 55.0 °F 29.69 in Calm   1.0 mph 86% 0.01 in
18:49 59.0 °F 55.1 °F 29.70 in Calm   1.0 mph 87% 0.01 in
18:54 59.0 °F 55.1 °F 29.71 in Calm   1.0 mph 87% 0.02 in
18:59 59.0 °F 55.1 °F 29.72 in WNW 9.0 mph 19.0 mph 87% 0.10 in
19:04 58.6 °F 54.4 °F 29.71 in NW 3.0 mph 19.0 mph 86% 0.17 in
19:09 58.4 °F 54.5 °F 29.72 in NW 1.0 mph 16.0 mph 87% 0.18 in
19:14 58.3 °F 54.5 °F 29.69 in WNW 2.0 mph 4.0 mph 87% 0.21 in
19:24 57.9 °F 54.4 °F 29.72 in WNW 2.0 mph 5.0 mph 88% 0.22 in
19:29 57.7 °F 54.5 °F 29.72 in Calm   4.0 mph 89% 0.23 in
19:34 57.6 °F 54.7 °F 29.73 in WSW 2.0 mph 4.0 mph 90% 0.24 in
19:39 57.2 °F 54.0 °F 29.73 in West 7.0 mph 13.0 mph 89% 0.24 in
19:44 56.9 °F 53.4 °F 29.73 in WSW 5.0 mph 15.0 mph 88% 0.24 in
19:49 56.8 °F 53.3 °F 29.73 in SW 3.0 mph 15.0 mph 88% 0.24 in
19:54 56.6 °F 53.4 °F 29.73 in WSW 2.0 mph 8.0 mph 89% 0.24 in
19:59 56.5 °F 53.3 °F 29.73 in WSW 3.0 mph 8.0 mph 89% 0.26 in
20:04 56.4 °F 53.2 °F 29.72 in SW 2.0 mph 7.0 mph 89% 0.27 in
20:09 56.4 °F 53.2 °F 29.73 in West 2.0 mph 6.0 mph 89% 0.28 in
20:14 56.4 °F 53.2 °F 29.72 in WSW 2.0 mph 6.0 mph 89% 0.28 in
20:19 56.4 °F 53.5 °F 29.71 in SSW 2.0 mph 5.0 mph 90% 0.28 in
20:24 56.3 °F 53.1 °F 29.71 in SSW 1.0 mph 5.0 mph 89% 0.28 in
20:29 56.2 °F 53.0 °F 29.72 in SSW 1.0 mph 5.0 mph 89% 0.28 in
20:34 55.9 °F 52.7 °F 29.72 in SSW 1.0 mph 4.0 mph 89% 0.28 in
20:39 55.6 °F 52.4 °F 29.72 in SSW 2.0 mph 6.0 mph 89% 0.28 in
20:44 55.4 °F 53.1 °F 29.72 in SSW 2.0 mph 6.0 mph 92% 0.28 in
20:49 55.2 °F 52.0 °F 29.72 in Calm   5.0 mph 89% 0.28 in
20:54 54.9 °F 52.0 °F 29.72 in SSW 1.0 mph 4.0 mph 90% 0.28 in
20:59 54.8 °F 51.9 °F 29.72 in Calm   4.0 mph 90% 0.28 in
21:04 54.5 °F 51.6 °F 29.72 in SSW 1.0 mph 3.0 mph 90% 0.28 in
21:09 54.1 °F 51.2 °F 29.73 in Calm   3.0 mph 90% 0.28 in
21:14 54.0 °F 51.1 °F 29.73 in SSW 1.0 mph 4.0 mph 90% 0.28 in
21:19 53.7 °F 50.8 °F 29.73 in SW 1.0 mph 5.0 mph 90% 0.28 in
21:24 53.8 °F 51.2 °F 29.74 in WSW 2.0 mph 5.0 mph 91% 0.28 in
21:29 53.7 °F 51.1 °F 29.74 in West 1.0 mph 7.0 mph 91% 0.28 in
21:34 53.8 °F 51.2 °F 29.74 in Calm   7.0 mph 91% 0.28 in
21:39 53.8 °F 51.2 °F 29.74 in Calm   2.0 mph 91% 0.28 in
21:44 53.8 °F 51.2 °F 29.74 in Calm   2.0 mph 91% 0.28 in
21:49 53.8 °F 51.2 °F 29.74 in Calm   4.0 mph 91% 0.28 in
21:54 53.9 °F 51.3 °F 29.75 in Calm   4.0 mph 91% 0.28 in
21:59 53.8 °F 51.2 °F 29.74 in Calm   3.0 mph 91% 0.28 in
22:04 53.6 °F 51.0 °F 29.75 in Calm   1.0 mph 91% 0.28 in
22:09 53.7 °F 51.4 °F 29.75 in Calm   3.0 mph 92% 0.28 in
22:14 53.7 °F 51.4 °F 29.75 in Calm   3.0 mph 92% 0.28 in
22:19 53.8 °F 51.5 °F 29.75 in Calm   5.0 mph 92% 0.28 in
22:24 53.8 °F 51.5 °F 29.75 in Calm   5.0 mph 92% 0.28 in
22:29 53.7 °F 51.4 °F 29.76 in Calm   3.0 mph 92% 0.28 in
22:34 53.6 °F 51.3 °F 29.76 in Calm   1.0 mph 92% 0.28 in
22:39 53.6 °F 51.3 °F 29.76 in Calm   1.0 mph 92% 0.28 in
22:44 53.5 °F 51.2 °F 29.76 in SW 1.0 mph 3.0 mph 92% 0.28 in
22:49 53.4 °F 51.1 °F 29.76 in Calm   3.0 mph 92% 0.28 in
22:54 53.1 °F 50.8 °F 29.76 in Calm   3.0 mph 92% 0.28 in
22:59 52.8 °F 50.5 °F 29.76 in Calm   2.0 mph 92% 0.28 in
23:04 52.6 °F 50.3 °F 29.77 in SW 1.0 mph 3.0 mph 92% 0.28 in
23:09 52.3 °F 50.0 °F 29.77 in SW 1.0 mph 3.0 mph 92% 0.28 in
23:14 52.3 °F 50.0 °F 29.77 in Calm   4.0 mph 92% 0.28 in
23:19 52.2 °F 49.9 °F 29.77 in Calm   4.0 mph 92% 0.28 in
23:24 52.1 °F 49.8 °F 29.77 in Calm   1.0 mph 92% 0.28 in
23:29 51.9 °F 49.7 °F 29.77 in Calm   1.0 mph 92% 0.28 in
23:34 51.6 °F 49.4 °F 29.77 in Calm     92% 0.28 in
23:39 51.4 °F 49.2 °F 29.77 in Calm     92% 0.28 in
23:44 51.1 °F 48.9 °F 29.77 in Calm     92% 0.28 in
23:49 50.9 °F 48.7 °F 29.77 in Calm     92% 0.28 in
23:54 50.8 °F 48.6 °F 29.77 in Calm   1.0 mph 92% 0.28 in
23:59 51.0 °F 49.0 °F 29.78 in Calm   1.0 mph 93% 0.28 in
Westford Weather
Compliments of Weather Underground

 
 
Current Radar Loop:

Copyright © WestfordWeather.net 2007-2014. All rights reserved.